sensor_id;sensor_type;location;lat;lon;timestamp;pressure;altitude;pressure_sealevel;temperature;humidity
73858;BME280;62195;55.030;73.278;2022-08-01T00:01:51;99329.13;;;18.24;91.18
73858;BME280;62195;55.030;73.278;2022-08-01T00:04:17;99336.09;;;18.25;91.31
73858;BME280;62195;55.030;73.278;2022-08-01T00:06:44;99337.50;;;18.29;90.99
73858;BME280;62195;55.030;73.278;2022-08-01T00:09:14;99333.03;;;18.29;90.98
73858;BME280;62195;55.030;73.278;2022-08-01T00:11:40;99333.88;;;18.30;90.96
73858;BME280;62195;55.030;73.278;2022-08-01T00:14:18;99343.53;;;18.31;91.19
73858;BME280;62195;55.030;73.278;2022-08-01T00:16:53;99346.19;;;18.31;91.20
73858;BME280;62195;55.030;73.278;2022-08-01T00:19:19;99341.56;;;18.33;91.18
73858;BME280;62195;55.030;73.278;2022-08-01T00:21:45;99338.75;;;18.35;91.02
73858;BME280;62195;55.030;73.278;2022-08-01T00:24:11;99343.94;;;18.36;90.87
73858;BME280;62195;55.030;73.278;2022-08-01T00:26:43;99342.97;;;18.37;91.16
73858;BME280;62195;55.030;73.278;2022-08-01T00:29:09;99346.16;;;18.41;90.96
73858;BME280;62195;55.030;73.278;2022-08-01T00:31:35;99348.38;;;18.45;91.15
73858;BME280;62195;55.030;73.278;2022-08-01T00:34:01;99349.75;;;18.50;91.02
73858;BME280;62195;55.030;73.278;2022-08-01T00:36:27;99356.59;;;18.52;90.91
73858;BME280;62195;55.030;73.278;2022-08-01T00:38:54;99346.13;;;18.51;90.88
73858;BME280;62195;55.030;73.278;2022-08-01T00:41:25;99350.31;;;18.53;90.95
73858;BME280;62195;55.030;73.278;2022-08-01T00:43:54;99346.66;;;18.54;90.89
73858;BME280;62195;55.030;73.278;2022-08-01T00:46:29;99345.25;;;18.60;90.64
73858;BME280;62195;55.030;73.278;2022-08-01T00:49:02;99324.59;;;18.44;90.46
73858;BME280;62195;55.030;73.278;2022-08-01T00:51:33;99349.53;;;18.71;90.45
73858;BME280;62195;55.030;73.278;2022-08-01T00:54:13;99362.00;;;18.70;90.17
73858;BME280;62195;55.030;73.278;2022-08-01T00:56:42;99354.59;;;18.64;90.08
73858;BME280;62195;55.030;73.278;2022-08-01T00:59:21;99368.94;;;18.81;90.14
73858;BME280;62195;55.030;73.278;2022-08-01T01:01:47;99366.09;;;18.93;89.65
73858;BME280;62195;55.030;73.278;2022-08-01T01:04:23;99368.63;;;18.94;89.38
73858;BME280;62195;55.030;73.278;2022-08-01T01:07:15;99360.72;;;19.03;89.27
73858;BME280;62195;55.030;73.278;2022-08-01T01:09:54;99372.88;;;19.80;87.18
73858;BME280;62195;55.030;73.278;2022-08-01T01:18:02;99371.81;;;20.62;83.44
73858;BME280;62195;55.030;73.278;2022-08-01T01:20:37;99371.63;;;20.90;82.33
73858;BME280;62195;55.030;73.278;2022-08-01T01:28:17;99361.97;;;23.68;73.49
73858;BME280;62195;55.030;73.278;2022-08-01T01:30:51;99350.50;;;24.21;70.17
73858;BME280;62195;55.030;73.278;2022-08-01T01:33:29;99360.47;;;23.89;70.67
73858;BME280;62195;55.030;73.278;2022-08-01T01:36:05;99363.75;;;22.81;73.48
73858;BME280;62195;55.030;73.278;2022-08-01T01:38:39;99376.38;;;22.22;75.50
73858;BME280;62195;55.030;73.278;2022-08-01T01:41:11;99380.06;;;21.71;77.17
73858;BME280;62195;55.030;73.278;2022-08-01T01:43:39;99378.47;;;21.35;78.33
73858;BME280;62195;55.030;73.278;2022-08-01T01:46:07;99382.44;;;21.15;78.81
73858;BME280;62195;55.030;73.278;2022-08-01T01:48:35;99371.81;;;20.88;79.59
73858;BME280;62195;55.030;73.278;2022-08-01T01:51:03;99378.59;;;20.82;80.32
73858;BME280;62195;55.030;73.278;2022-08-01T01:53:33;99385.22;;;20.78;80.69
73858;BME280;62195;55.030;73.278;2022-08-01T01:56:00;99386.19;;;20.69;81.26
73858;BME280;62195;55.030;73.278;2022-08-01T01:58:28;99383.47;;;20.61;81.27
73858;BME280;62195;55.030;73.278;2022-08-01T02:00:58;99388.44;;;20.55;81.25
73858;BME280;62195;55.030;73.278;2022-08-01T02:03:25;99390.44;;;20.53;81.40
73858;BME280;62195;55.030;73.278;2022-08-01T02:05:59;99390.44;;;20.53;81.32
73858;BME280;62195;55.030;73.278;2022-08-01T02:08:29;99390.94;;;20.57;81.64
73858;BME280;62195;55.030;73.278;2022-08-01T02:10:57;99384.75;;;20.56;81.70
73858;BME280;62195;55.030;73.278;2022-08-01T02:13:43;99403.28;;;20.58;81.58
73858;BME280;62195;55.030;73.278;2022-08-01T02:16:11;99401.13;;;20.62;81.25
73858;BME280;62195;55.030;73.278;2022-08-01T02:18:38;99391.63;;;20.59;81.50
73858;BME280;62195;55.030;73.278;2022-08-01T02:21:05;99401.19;;;20.70;81.65
73858;BME280;62195;55.030;73.278;2022-08-01T02:23:36;99406.19;;;20.73;81.35
73858;BME280;62195;55.030;73.278;2022-08-01T02:26:07;99414.56;;;20.78;81.07
73858;BME280;62195;55.030;73.278;2022-08-01T02:28:41;99420.41;;;20.82;81.43
73858;BME280;62195;55.030;73.278;2022-08-01T02:31:12;99408.91;;;20.81;81.21
73858;BME280;62195;55.030;73.278;2022-08-01T02:33:54;99409.47;;;20.85;81.45
73858;BME280;62195;55.030;73.278;2022-08-01T02:36:24;99399.66;;;20.86;80.88
73858;BME280;62195;55.030;73.278;2022-08-01T02:38:51;99412.50;;;20.90;81.66
73858;BME280;62195;55.030;73.278;2022-08-01T02:41:20;99407.31;;;20.89;80.47
73858;BME280;62195;55.030;73.278;2022-08-01T02:43:50;99393.31;;;20.87;81.21
73858;BME280;62195;55.030;73.278;2022-08-01T02:46:36;99411.00;;;20.96;80.90
73858;BME280;62195;55.030;73.278;2022-08-01T02:49:06;99408.69;;;21.01;80.82
73858;BME280;62195;55.030;73.278;2022-08-01T02:54:01;99397.75;;;21.13;80.63
73858;BME280;62195;55.030;73.278;2022-08-01T02:56:29;99412.28;;;21.27;80.23
73858;BME280;62195;55.030;73.278;2022-08-01T02:59:10;99414.81;;;21.28;80.54
73858;BME280;62195;55.030;73.278;2022-08-01T03:01:39;99415.53;;;21.38;80.24
73858;BME280;62195;55.030;73.278;2022-08-01T03:04:06;99422.25;;;21.59;79.84
73858;BME280;62195;55.030;73.278;2022-08-01T03:06:33;99420.25;;;21.70;79.13
73858;BME280;62195;55.030;73.278;2022-08-01T03:09:03;99427.81;;;21.83;78.97
73858;BME280;62195;55.030;73.278;2022-08-01T03:11:31;99429.34;;;21.94;78.77
73858;BME280;62195;55.030;73.278;2022-08-01T03:14:02;99424.34;;;22.07;78.43
73858;BME280;62195;55.030;73.278;2022-08-01T03:16:32;99416.47;;;22.05;77.90
73858;BME280;62195;55.030;73.278;2022-08-01T03:19:00;99428.34;;;22.03;78.09
73858;BME280;62195;55.030;73.278;2022-08-01T03:21:28;99431.34;;;22.00;78.16
73858;BME280;62195;55.030;73.278;2022-08-01T03:23:57;99424.34;;;22.07;78.21
73858;BME280;62195;55.030;73.278;2022-08-01T03:26:27;99436.38;;;22.11;77.99
73858;BME280;62195;55.030;73.278;2022-08-01T03:29:01;99435.19;;;22.05;77.75
73858;BME280;62195;55.030;73.278;2022-08-01T03:31:28;99446.53;;;21.99;78.32
73858;BME280;62195;55.030;73.278;2022-08-01T03:33:56;99423.31;;;21.83;78.21
73858;BME280;62195;55.030;73.278;2022-08-01T03:36:28;99440.69;;;21.87;78.46
73858;BME280;62195;55.030;73.278;2022-08-01T03:38:57;99439.00;;;21.86;78.58
73858;BME280;62195;55.030;73.278;2022-08-01T03:41:28;99437.50;;;21.84;78.32
73858;BME280;62195;55.030;73.278;2022-08-01T03:43:58;99440.69;;;21.87;78.51
73858;BME280;62195;55.030;73.278;2022-08-01T03:46:43;99451.88;;;21.91;78.24
73858;BME280;62195;55.030;73.278;2022-08-01T03:49:15;99450.53;;;21.87;78.16
73858;BME280;62195;55.030;73.278;2022-08-01T03:51:44;99452.00;;;21.81;78.12
73858;BME280;62195;55.030;73.278;2022-08-01T03:54:15;99460.22;;;21.80;78.25
73858;BME280;62195;55.030;73.278;2022-08-01T03:56:43;99467.19;;;21.72;78.06
73858;BME280;62195;55.030;73.278;2022-08-01T03:59:09;99462.31;;;21.68;78.24
73858;BME280;62195;55.030;73.278;2022-08-01T04:01:36;99467.50;;;21.69;78.60
73858;BME280;62195;55.030;73.278;2022-08-01T04:04:03;99462.19;;;21.77;78.46
73858;BME280;62195;55.030;73.278;2022-08-01T04:06:31;99465.56;;;21.80;78.28
73858;BME280;62195;55.030;73.278;2022-08-01T04:08:59;99483.41;;;21.79;78.22
73858;BME280;62195;55.030;73.278;2022-08-01T04:11:26;99476.91;;;21.73;78.33
73858;BME280;62195;55.030;73.278;2022-08-01T04:13:54;99467.38;;;21.71;78.30
73858;BME280;62195;55.030;73.278;2022-08-01T04:16:21;99462.03;;;21.71;77.76
73858;BME280;62195;55.030;73.278;2022-08-01T04:18:47;99462.53;;;21.74;78.01
73858;BME280;62195;55.030;73.278;2022-08-01T04:21:18;99471.06;;;21.78;77.68
73858;BME280;62195;55.030;73.278;2022-08-01T04:23:46;99462.69;;;21.81;77.76
73858;BME280;62195;55.030;73.278;2022-08-01T04:26:14;99474.72;;;21.85;77.97
73858;BME280;62195;55.030;73.278;2022-08-01T04:28:42;99463.19;;;21.76;77.39
73858;BME280;62195;55.030;73.278;2022-08-01T04:31:16;99481.41;;;21.81;77.41
73858;BME280;62195;55.030;73.278;2022-08-01T04:33:45;99467.88;;;21.83;77.24
73858;BME280;62195;55.030;73.278;2022-08-01T04:36:16;99478.25;;;21.86;76.78
73858;BME280;62195;55.030;73.278;2022-08-01T04:38:45;99479.06;;;21.86;77.07
73858;BME280;62195;55.030;73.278;2022-08-01T04:41:14;99476.44;;;21.95;77.08
73858;BME280;62195;55.030;73.278;2022-08-01T04:43:41;99476.78;;;22.00;76.87
73858;BME280;62195;55.030;73.278;2022-08-01T04:46:08;99476.78;;;22.00;76.63
73858;BME280;62195;55.030;73.278;2022-08-01T04:48:38;99478.09;;;21.96;76.71
73858;BME280;62195;55.030;73.278;2022-08-01T04:51:09;99482.75;;;21.85;76.78
73858;BME280;62195;55.030;73.278;2022-08-01T04:53:37;99481.44;;;21.89;76.90
73858;BME280;62195;55.030;73.278;2022-08-01T04:56:03;99483.78;;;22.01;76.57
73858;BME280;62195;55.030;73.278;2022-08-01T04:58:29;99475.78;;;22.01;76.35
73858;BME280;62195;55.030;73.278;2022-08-01T05:00:55;99486.31;;;22.02;76.34
73858;BME280;62195;55.030;73.278;2022-08-01T05:03:21;99499.47;;;22.04;76.56
73858;BME280;62195;55.030;73.278;2022-08-01T05:05:54;99486.59;;;21.83;77.07
73858;BME280;62195;55.030;73.278;2022-08-01T05:08:20;99489.13;;;22.01;76.50
73858;BME280;62195;55.030;73.278;2022-08-01T05:10:47;99490.63;;;22.12;76.14
73858;BME280;62195;55.030;73.278;2022-08-01T05:13:13;99486.63;;;22.16;75.93
73858;BME280;62195;55.030;73.278;2022-08-01T05:15:39;99496.50;;;22.24;75.88
73858;BME280;62195;55.030;73.278;2022-08-01T05:18:15;99497.81;;;22.20;76.26
73858;BME280;62195;55.030;73.278;2022-08-01T05:20:41;99502.69;;;22.16;76.32
73858;BME280;62195;55.030;73.278;2022-08-01T05:23:14;99499.81;;;22.01;76.88
73858;BME280;62195;55.030;73.278;2022-08-01T05:25:40;99497.31;;;21.91;77.23
73858;BME280;62195;55.030;73.278;2022-08-01T05:28:06;99503.63;;;21.82;77.08
73858;BME280;62195;55.030;73.278;2022-08-01T05:30:32;99502.44;;;21.84;76.97
73858;BME280;62195;55.030;73.278;2022-08-01T05:32:58;99510.97;;;21.88;76.75
73858;BME280;62195;55.030;73.278;2022-08-01T05:35:25;99503.66;;;21.90;76.71
73858;BME280;62195;55.030;73.278;2022-08-01T05:37:51;99516.31;;;21.88;76.94
73858;BME280;62195;55.030;73.278;2022-08-01T05:40:17;99507.13;;;21.82;77.37
73858;BME280;62195;55.030;73.278;2022-08-01T05:42:54;99514.16;;;21.83;77.71
73858;BME280;62195;55.030;73.278;2022-08-01T05:45:21;99512.47;;;21.90;77.05
73858;BME280;62195;55.030;73.278;2022-08-01T05:47:47;99515.16;;;21.90;76.77
73858;BME280;62195;55.030;73.278;2022-08-01T05:50:13;99517.16;;;21.88;76.49
73858;BME280;62195;55.030;73.278;2022-08-01T05:52:39;99524.88;;;22.00;75.96
73858;BME280;62195;55.030;73.278;2022-08-01T05:55:15;99519.38;;;22.10;75.93
73858;BME280;62195;55.030;73.278;2022-08-01T05:57:51;99519.56;;;22.16;75.89
73858;BME280;62195;55.030;73.278;2022-08-01T06:00:17;99517.91;;;22.15;75.60
73858;BME280;62195;55.030;73.278;2022-08-01T06:02:43;99516.88;;;22.16;76.19
73858;BME280;62195;55.030;73.278;2022-08-01T06:05:20;99519.56;;;22.16;76.32
73858;BME280;62195;55.030;73.278;2022-08-01T06:07:56;99516.84;;;22.00;76.75
73858;BME280;62195;55.030;73.278;2022-08-01T06:10:33;99524.19;;;21.89;77.36
73858;BME280;62195;55.030;73.278;2022-08-01T06:13:04;99527.84;;;21.88;77.82
73858;BME280;62195;55.030;73.278;2022-08-01T06:15:31;99525.84;;;21.90;77.56
73858;BME280;62195;55.030;73.278;2022-08-01T06:17:59;99526.53;;;22.01;77.63
73858;BME280;62195;55.030;73.278;2022-08-01T06:20:25;99531.88;;;22.01;77.05
73858;BME280;62195;55.030;73.278;2022-08-01T06:22:51;99531.53;;;22.04;76.43
73858;BME280;62195;55.030;73.278;2022-08-01T06:25:28;99538.56;;;22.05;76.46
73858;BME280;62195;55.030;73.278;2022-08-01T06:27:54;99525.84;;;21.90;76.59
73858;BME280;62195;55.030;73.278;2022-08-01T06:30:26;99530.16;;;21.83;77.12
73858;BME280;62195;55.030;73.278;2022-08-01T06:32:52;99527.47;;;21.75;77.09
73858;BME280;62195;55.030;73.278;2022-08-01T06:35:21;99526.94;;;21.71;77.59
73858;BME280;62195;55.030;73.278;2022-08-01T06:37:47;99529.22;;;21.66;77.03
73858;BME280;62195;55.030;73.278;2022-08-01T06:40:14;99523.72;;;21.59;77.22
73858;BME280;62195;55.030;73.278;2022-08-01T06:42:41;99525.06;;;21.63;77.15
73858;BME280;62195;55.030;73.278;2022-08-01T06:45:09;99527.94;;;21.70;77.11
73858;BME280;62195;55.030;73.278;2022-08-01T06:47:36;99521.81;;;21.78;76.07
73858;BME280;62195;55.030;73.278;2022-08-01T06:50:12;99523.66;;;21.86;76.23
73858;BME280;62195;55.030;73.278;2022-08-01T06:52:41;99519.84;;;21.97;76.08
73858;BME280;62195;55.030;73.278;2022-08-01T06:55:07;99512.53;;;22.15;75.42
73858;BME280;62195;55.030;73.278;2022-08-01T06:57:50;99515.72;;;22.27;74.53
73858;BME280;62195;55.030;73.278;2022-08-01T07:00:17;99510.56;;;22.34;74.26
73858;BME280;62195;55.030;73.278;2022-08-01T07:02:45;99506.88;;;22.35;75.53
73858;BME280;62195;55.030;73.278;2022-08-01T07:05:11;99511.38;;;22.43;75.00
73858;BME280;62195;55.030;73.278;2022-08-01T07:07:38;99501.38;;;22.37;75.28
73858;BME280;62195;55.030;73.278;2022-08-01T07:10:04;99511.38;;;22.35;75.29
73858;BME280;62195;55.030;73.278;2022-08-01T07:12:31;99510.72;;;22.24;75.44
73858;BME280;62195;55.030;73.278;2022-08-01T07:14:58;99500.00;;;22.16;75.77
73858;BME280;62195;55.030;73.278;2022-08-01T07:17:39;99508.19;;;22.14;75.56
73858;BME280;62195;55.030;73.278;2022-08-01T07:20:10;99502.00;;;22.14;75.79
73858;BME280;62195;55.030;73.278;2022-08-01T07:22:37;99504.34;;;22.17;75.24
73858;BME280;62195;55.030;73.278;2022-08-01T07:25:04;99506.19;;;22.25;75.71
73858;BME280;62195;55.030;73.278;2022-08-01T07:27:31;99502.53;;;22.34;75.19
73858;BME280;62195;55.030;73.278;2022-08-01T07:29:57;99503.88;;;22.47;75.31
73858;BME280;62195;55.030;73.278;2022-08-01T07:32:23;99503.22;;;22.61;74.71
73858;BME280;62195;55.030;73.278;2022-08-01T07:34:50;99502.53;;;22.76;74.49
73858;BME280;62195;55.030;73.278;2022-08-01T07:37:16;99496.19;;;22.85;74.04
73858;BME280;62195;55.030;73.278;2022-08-01T07:39:47;99506.72;;;22.78;73.79
73858;BME280;62195;55.030;73.278;2022-08-01T07:42:13;99506.53;;;22.71;73.09
73858;BME280;62195;55.030;73.278;2022-08-01T07:44:39;99501.06;;;22.65;73.36
73858;BME280;62195;55.030;73.278;2022-08-01T07:47:08;99502.06;;;22.55;73.63
73858;BME280;62195;55.030;73.278;2022-08-01T07:49:38;99491.84;;;22.51;73.55
73858;BME280;62195;55.030;73.278;2022-08-01T07:52:04;99495.22;;;22.61;73.80
73858;BME280;62195;55.030;73.278;2022-08-01T07:54:31;99488.47;;;22.82;72.80
73858;BME280;62195;55.030;73.278;2022-08-01T07:56:57;99489.13;;;23.01;72.25
73858;BME280;62195;55.030;73.278;2022-08-01T07:59:24;99501.00;;;22.98;73.07
73858;BME280;62195;55.030;73.278;2022-08-01T08:01:50;99494.19;;;22.70;72.48
73858;BME280;62195;55.030;73.278;2022-08-01T08:04:18;99485.16;;;22.47;73.60
73858;BME280;62195;55.030;73.278;2022-08-01T08:06:45;99487.47;;;22.25;74.01
73858;BME280;62195;55.030;73.278;2022-08-01T08:09:13;99483.13;;;22.07;74.80
73858;BME280;62195;55.030;73.278;2022-08-01T08:11:44;99483.13;;;22.07;74.64
73858;BME280;62195;55.030;73.278;2022-08-01T08:14:11;99472.75;;;22.04;74.41
73858;BME280;62195;55.030;73.278;2022-08-01T08:16:38;99479.97;;;22.20;73.93
73858;BME280;62195;55.030;73.278;2022-08-01T08:19:10;99474.63;;;22.20;73.77
73858;BME280;62195;55.030;73.278;2022-08-01T08:21:38;99476.78;;;22.41;73.38
73858;BME280;62195;55.030;73.278;2022-08-01T08:24:05;99477.94;;;22.80;72.82
73858;BME280;62195;55.030;73.278;2022-08-01T08:26:51;99471.31;;;23.16;71.37
73858;BME280;62195;55.030;73.278;2022-08-01T08:29:19;99494.09;;;23.12;71.39
73858;BME280;62195;55.030;73.278;2022-08-01T08:31:45;99496.19;;;22.68;71.06
73858;BME280;62195;55.030;73.278;2022-08-01T08:34:13;99498.84;;;22.43;71.46
73858;BME280;62195;55.030;73.278;2022-08-01T08:36:44;99494.50;;;22.17;71.68
73858;BME280;62195;55.030;73.278;2022-08-01T08:39:10;99506.50;;;22.05;71.91
73858;BME280;62195;55.030;73.278;2022-08-01T08:41:41;99505.16;;;22.01;71.87
73858;BME280;62195;55.030;73.278;2022-08-01T08:44:08;99500.63;;;21.85;71.64
73858;BME280;62195;55.030;73.278;2022-08-01T08:46:42;99505.13;;;21.84;71.60
73858;BME280;62195;55.030;73.278;2022-08-01T08:49:10;99502.66;;;21.91;71.57
73858;BME280;62195;55.030;73.278;2022-08-01T08:51:39;99504.84;;;22.12;71.46
73858;BME280;62195;55.030;73.278;2022-08-01T08:54:07;99505.84;;;22.11;71.23
73858;BME280;62195;55.030;73.278;2022-08-01T08:56:35;99509.34;;;22.03;70.91
73858;BME280;62195;55.030;73.278;2022-08-01T08:59:06;99514.50;;;21.97;71.54
73858;BME280;62195;55.030;73.278;2022-08-01T09:01:32;99516.34;;;21.96;70.66
73858;BME280;62195;55.030;73.278;2022-08-01T09:03:59;99518.50;;;21.92;70.87
73858;BME280;62195;55.030;73.278;2022-08-01T09:06:32;99528.19;;;21.94;70.88
73858;BME280;62195;55.030;73.278;2022-08-01T09:08:59;99521.16;;;21.84;70.13
73858;BME280;62195;55.030;73.278;2022-08-01T09:11:25;99516.78;;;21.75;70.02
73858;BME280;62195;55.030;73.278;2022-08-01T09:14:14;99517.72;;;21.65;70.70
73858;BME280;62195;55.030;73.278;2022-08-01T09:16:44;99514.28;;;21.73;70.37
73858;BME280;62195;55.030;73.278;2022-08-01T09:19:12;99530.47;;;21.80;70.01
73858;BME280;62195;55.030;73.278;2022-08-01T09:21:38;99527.16;;;21.78;68.71
73858;BME280;62195;55.030;73.278;2022-08-01T09:24:14;99527.66;;;21.82;67.17
73858;BME280;62195;55.030;73.278;2022-08-01T09:26:40;99528.84;;;21.87;67.34
73858;BME280;62195;55.030;73.278;2022-08-01T09:29:08;99525.19;;;21.97;67.86
73858;BME280;62195;55.030;73.278;2022-08-01T09:31:44;99530.88;;;22.02;67.40
73858;BME280;62195;55.030;73.278;2022-08-01T09:34:10;99521.19;;;22.01;68.22
73858;BME280;62195;55.030;73.278;2022-08-01T09:37:03;99521.53;;;22.06;68.44
73858;BME280;62195;55.030;73.278;2022-08-01T09:39:34;99524.72;;;22.18;67.85
73858;BME280;62195;55.030;73.278;2022-08-01T09:42:19;99520.56;;;22.24;67.79
73858;BME280;62195;55.030;73.278;2022-08-01T09:44:46;99520.75;;;22.30;67.94
73858;BME280;62195;55.030;73.278;2022-08-01T09:47:13;99518.88;;;22.31;67.38
73858;BME280;62195;55.030;73.278;2022-08-01T09:49:40;99518.06;;;22.30;67.32
73858;BME280;62195;55.030;73.278;2022-08-01T09:54:37;99525.75;;;22.25;67.40
73858;BME280;62195;55.030;73.278;2022-08-01T09:57:09;99516.22;;;22.31;67.88
73858;BME280;62195;55.030;73.278;2022-08-01T09:59:37;99511.22;;;22.28;68.21
73858;BME280;62195;55.030;73.278;2022-08-01T10:02:06;99517.88;;;22.32;68.03
73858;BME280;62195;55.030;73.278;2022-08-01T10:04:33;99511.56;;;22.50;68.10
73858;BME280;62195;55.030;73.278;2022-08-01T10:07:07;99520.94;;;22.62;67.98
73858;BME280;62195;55.030;73.278;2022-08-01T10:09:35;99523.25;;;22.65;68.06
73858;BME280;62195;55.030;73.278;2022-08-01T10:12:03;99497.03;;;22.61;67.57
73858;BME280;62195;55.030;73.278;2022-08-01T10:14:37;99523.59;;;22.79;66.85
73858;BME280;62195;55.030;73.278;2022-08-01T10:17:06;99517.25;;;22.71;66.98
73858;BME280;62195;55.030;73.278;2022-08-01T10:19:34;99530.78;;;22.62;66.90
73858;BME280;62195;55.030;73.278;2022-08-01T10:22:04;99528.97;;;22.62;66.16
73858;BME280;62195;55.030;73.278;2022-08-01T10:24:36;99531.94;;;22.51;65.80
73858;BME280;62195;55.030;73.278;2022-08-01T10:27:05;99536.63;;;22.40;65.71
73858;BME280;62195;55.030;73.278;2022-08-01T10:29:35;99532.97;;;22.50;65.78
73858;BME280;62195;55.030;73.278;2022-08-01T10:32:13;99528.09;;;22.45;65.55
73858;BME280;62195;55.030;73.278;2022-08-01T10:34:39;99531.94;;;22.42;65.44
73858;BME280;62195;55.030;73.278;2022-08-01T10:37:06;99522.91;;;22.35;65.53
73858;BME280;62195;55.030;73.278;2022-08-01T10:39:33;99527.59;;;22.50;65.31
73858;BME280;62195;55.030;73.278;2022-08-01T10:42:00;99534.63;;;22.59;65.93
73858;BME280;62195;55.030;73.278;2022-08-01T10:44:28;99529.47;;;22.66;63.85
73858;BME280;62195;55.030;73.278;2022-08-01T10:47:02;99526.97;;;22.73;63.78
73858;BME280;62195;55.030;73.278;2022-08-01T10:49:32;99522.94;;;22.85;64.19
73858;BME280;62195;55.030;73.278;2022-08-01T10:52:01;99533.28;;;22.96;63.22
73858;BME280;62195;55.030;73.278;2022-08-01T10:54:27;99522.91;;;23.02;61.99
73858;BME280;62195;55.030;73.278;2022-08-01T10:57:04;99521.25;;;23.01;61.49
73858;BME280;62195;55.030;73.278;2022-08-01T10:59:32;99515.53;;;23.04;62.13
73858;BME280;62195;55.030;73.278;2022-08-01T11:02:04;99507.16;;;23.07;61.85
73858;BME280;62195;55.030;73.278;2022-08-01T11:04:54;99525.88;;;23.23;60.67
73858;BME280;62195;55.030;73.278;2022-08-01T11:07:24;99525.66;;;23.25;59.94
73858;BME280;62195;55.030;73.278;2022-08-01T11:10:22;99530.53;;;23.30;61.21
73858;BME280;62195;55.030;73.278;2022-08-01T11:12:58;99527.34;;;23.34;60.36
73858;BME280;62195;55.030;73.278;2022-08-01T11:15:26;99532.03;;;23.24;58.76
73858;BME280;62195;55.030;73.278;2022-08-01T11:17:55;99526.19;;;23.29;60.04
73858;BME280;62195;55.030;73.278;2022-08-01T11:20:32;99540.75;;;23.26;59.81
73858;BME280;62195;55.030;73.278;2022-08-01T11:33:48;99550.69;;;22.67;61.31
73858;BME280;62195;55.030;73.278;2022-08-01T11:38:46;99553.16;;;22.44;61.80
73858;BME280;62195;55.030;73.278;2022-08-01T11:41:21;99568.50;;;22.25;61.95
73858;BME280;62195;55.030;73.278;2022-08-01T11:44:07;99574.28;;;22.04;60.66
73858;BME280;62195;55.030;73.278;2022-08-01T11:46:57;99579.53;;;21.71;59.97
73858;BME280;62195;55.030;73.278;2022-08-01T11:54:30;99584.59;;;21.21;61.27
73858;BME280;62195;55.030;73.278;2022-08-01T11:56:58;99556.75;;;20.97;61.98
73858;BME280;62195;55.030;73.278;2022-08-01T11:59:25;99593.22;;;21.15;61.81
73858;BME280;62195;55.030;73.278;2022-08-01T12:04:54;99607.63;;;21.04;61.52
73858;BME280;62195;55.030;73.278;2022-08-01T12:07:21;99607.06;;;20.92;61.65
73858;BME280;62195;55.030;73.278;2022-08-01T12:09:48;99606.28;;;20.81;62.42
73858;BME280;62195;55.030;73.278;2022-08-01T12:12:28;99584.81;;;20.65;62.74
73858;BME280;62195;55.030;73.278;2022-08-01T12:14:57;99578.72;;;20.54;63.38
73858;BME280;62195;55.030;73.278;2022-08-01T12:17:32;99620.91;;;20.77;62.88
73858;BME280;62195;55.030;73.278;2022-08-01T12:19:58;99628.53;;;20.72;61.95
73858;BME280;62195;55.030;73.278;2022-08-01T12:22:24;99634.78;;;20.63;61.66
73858;BME280;62195;55.030;73.278;2022-08-01T12:24:51;99631.03;;;20.55;61.74
73858;BME280;62195;55.030;73.278;2022-08-01T12:27:30;99638.81;;;20.49;58.12
73858;BME280;62195;55.030;73.278;2022-08-01T12:29:58;99655.38;;;20.42;57.75
73858;BME280;62195;55.030;73.278;2022-08-01T12:32:29;99647.91;;;20.28;58.03
73858;BME280;62195;55.030;73.278;2022-08-01T12:35:07;99652.69;;;20.24;58.99
73858;BME280;62195;55.030;73.278;2022-08-01T12:37:39;99654.66;;;20.22;58.56
73858;BME280;62195;55.030;73.278;2022-08-01T12:42:43;99650.44;;;20.01;59.42
73858;BME280;62195;55.030;73.278;2022-08-01T12:45:12;99656.19;;;19.97;59.61
73858;BME280;62195;55.030;73.278;2022-08-01T12:47:40;99650.59;;;19.90;60.27
73858;BME280;62195;55.030;73.278;2022-08-01T12:50:12;99659.56;;;19.89;60.84
73858;BME280;62195;55.030;73.278;2022-08-01T12:52:40;99658.47;;;19.82;60.94
73858;BME280;62195;55.030;73.278;2022-08-01T12:55:14;99671.78;;;19.82;61.12
73858;BME280;62195;55.030;73.278;2022-08-01T12:57:46;99666.75;;;19.78;61.84
73858;BME280;62195;55.030;73.278;2022-08-01T13:00:25;99665.81;;;19.70;61.73
73858;BME280;62195;55.030;73.278;2022-08-01T13:05:55;99679.44;;;19.57;61.75
73858;BME280;62195;55.030;73.278;2022-08-01T13:08:33;99675.69;;;19.49;62.21
73858;BME280;62195;55.030;73.278;2022-08-01T13:11:08;99681.00;;;19.49;63.25
73858;BME280;62195;55.030;73.278;2022-08-01T13:13:51;99683.94;;;19.46;63.51
73858;BME280;62195;55.030;73.278;2022-08-01T13:16:21;99665.34;;;19.36;63.03
73858;BME280;62195;55.030;73.278;2022-08-01T13:18:49;99665.06;;;19.30;63.22
73858;BME280;62195;55.030;73.278;2022-08-01T13:21:22;99670.91;;;19.33;63.95
73858;BME280;62195;55.030;73.278;2022-08-01T13:24:11;99675.69;;;19.30;64.32
73858;BME280;62195;55.030;73.278;2022-08-01T13:26:48;99673.16;;;19.28;63.46
73858;BME280;62195;55.030;73.278;2022-08-01T13:29:17;99668.69;;;19.29;64.18
73858;BME280;62195;55.030;73.278;2022-08-01T13:31:44;99671.34;;;19.29;64.72
73858;BME280;62195;55.030;73.278;2022-08-01T13:34:14;99674.03;;;19.29;64.36
73858;BME280;62195;55.030;73.278;2022-08-01T13:36:51;99681.28;;;19.27;64.79
73858;BME280;62195;55.030;73.278;2022-08-01T13:39:19;99674.59;;;19.22;65.37
73858;BME280;62195;55.030;73.278;2022-08-01T13:42:04;99690.25;;;19.25;65.09
73858;BME280;62195;55.030;73.278;2022-08-01T13:44:31;99692.22;;;19.23;65.63
73858;BME280;62195;55.030;73.278;2022-08-01T13:46:57;99685.50;;;19.19;66.01
73858;BME280;62195;55.030;73.278;2022-08-01T13:49:28;99693.63;;;19.18;66.08